Hong Fa Shang Hai — BQIB — position and weather

sailwx.info

Track history (hours):
 
Tides and Currents Weather Stations Pressure Air Temp Water Temp Dewpoint Dewpoint Depression Visibility Wind Speed Wind Dir Waves Ship Positions

Hong Fa Shang Hai

Last reported at 2018-Jan-20 09:45 UTC. Time now 2018-Feb-20 23:00 UTC.
Position N 01°19' E 103°20'.
Warning: this ship's position is 31 days out of date.

Length 170 m; draft 7.6 m.

Type: Cargo ship. MMSI: 412379590.

Date/timePositionNaut miles runAvg speedWind from/ knotsBaromVisibWave heightAir tempDewpointWater temp
2018-Jan-20 09:45N 01°19' E 103°20'414.5
2018-Jan-20 09:30N 01°17' E 103°22'713.9
2018-Jan-20 09:01N 01°13' E 103°28'713.4
2018-Jan-20 08:28N 01°12' E 103°35'612.3
2018-Jan-20 08:00N 01°10' E 103°41'510.4
2018-Jan-20 07:30N 01°09' E 103°46'510.8
2018-Jan-20 07:01N 01°12' E 103°51'3 5.2
2018-Jan-20 06:30N 01°14' E 103°53'1 1.5
2018-Jan-20 05:44N 01°15' E 103°53'0 0.0
2018-Jan-20 05:17N 01°15' E 103°53'0 0.2
2018-Jan-20 04:56N 01°15' E 103°52'0 0.1
2018-Jan-20 03:26N 01°15' E 103°52'0 0.0
2018-Jan-20 02:56N 01°15' E 103°52'0 0.0
2018-Jan-20 02:20N 01°15' E 103°52'0 0.0
2018-Jan-20 01:56N 01°15' E 103°52'0 0.0
2018-Jan-20 01:29N 01°15' E 103°52'0 0.0
2018-Jan-20 00:50N 01°15' E 103°52'0 0.0
2018-Jan-20 00:26N 01°15' E 103°52'0 0.0
2018-Jan-19 23:47N 01°15' E 103°52'0 0.0
2018-Jan-19 23:29N 01°15' E 103°52'0 0.0
2018-Jan-19 22:56N 01°15' E 103°52'0 0.0
2018-Jan-19 22:08N 01°15' E 103°52'0 0.0
2018-Jan-19 21:38N 01°15' E 103°52'0 0.0
2018-Jan-19 21:26N 01°15' E 103°52'0 0.0
2018-Jan-19 20:59N 01°15' E 103°52'0 0.0
2018-Jan-19 20:26N 01°15' E 103°52'0 0.0
2018-Jan-19 19:59N 01°15' E 103°52'0 0.1
2018-Jan-19 19:26N 01°15' E 103°52'1 3.0
2018-Jan-19 19:00N 01°14' E 103°53'3 6.5
2018-Jan-19 18:30N 01°14' E 103°57'4 7.9
2018-Jan-19 17:59N 01°16' E 104°01'4 6.5
2018-Jan-19 17:22N 01°16' E 104°04'  
Track history (hours):
 
Tides and Currents Weather Stations Pressure Air Temp Water Temp Dewpoint Dewpoint Depression Visibility Wind Speed Wind Dir Waves Ship Positions

Hong Fa Shang Hai

Last reported at 2018-Jan-20 09:45 UTC. Time now 2018-Feb-20 23:01 UTC.
Position N 01°19' E 103°20'.
Warning: this ship's position is 31 days out of date.

Length 170 m; draft 7.6 m.

Type: Cargo ship. MMSI: 412379590.

Date/timePositionNaut miles runAvg speedWind from/ knotsBaromVisibWave heightAir tempDewpointWater temp
2018-Jan-20 09:45N 01°19' E 103°20'414.5
2018-Jan-20 09:30N 01°17' E 103°22'713.9
2018-Jan-20 09:01N 01°13' E 103°28'713.4
2018-Jan-20 08:28N 01°12' E 103°35'612.3
2018-Jan-20 08:00N 01°10' E 103°41'510.4
2018-Jan-20 07:30N 01°09' E 103°46'510.8
2018-Jan-20 07:01N 01°12' E 103°51'3 5.2
2018-Jan-20 06:30N 01°14' E 103°53'1 1.5
2018-Jan-20 05:44N 01°15' E 103°53'0 0.0
2018-Jan-20 05:17N 01°15' E 103°53'0 0.2
2018-Jan-20 04:56N 01°15' E 103°52'0 0.1
2018-Jan-20 03:26N 01°15' E 103°52'0 0.0
2018-Jan-20 02:56N 01°15' E 103°52'0 0.0
2018-Jan-20 02:20N 01°15' E 103°52'0 0.0
2018-Jan-20 01:56N 01°15' E 103°52'0 0.0
2018-Jan-20 01:29N 01°15' E 103°52'0 0.0
2018-Jan-20 00:50N 01°15' E 103°52'0 0.0
2018-Jan-20 00:26N 01°15' E 103°52'0 0.0
2018-Jan-19 23:47N 01°15' E 103°52'0 0.0
2018-Jan-19 23:29N 01°15' E 103°52'0 0.0
2018-Jan-19 22:56N 01°15' E 103°52'0 0.0
2018-Jan-19 22:08N 01°15' E 103°52'0 0.0
2018-Jan-19 21:38N 01°15' E 103°52'0 0.0
2018-Jan-19 21:26N 01°15' E 103°52'0 0.0
2018-Jan-19 20:59N 01°15' E 103°52'0 0.0
2018-Jan-19 20:26N 01°15' E 103°52'0 0.0
2018-Jan-19 19:59N 01°15' E 103°52'0 0.1
2018-Jan-19 19:26N 01°15' E 103°52'1 3.0
2018-Jan-19 19:00N 01°14' E 103°53'3 6.5
2018-Jan-19 18:30N 01°14' E 103°57'4 7.9
2018-Jan-19 17:59N 01°16' E 104°01'4 6.5
2018-Jan-19 17:22N 01°16' E 104°04'  

Dump ship's entire track history